Portada
METAR-TAF:

METAR-TAF

Aeroports :

Yaoundé, Camerun

latitud: 03-50N, longitud: 011-31E, altitud: 751 m

Observació

L'informe es va fer fa 50 minuts, a les 00:00 UTC
Vent 3 kt del Oest, variant entre Sud-Oest i Oest/Nord-Oest
Temperatura 23°C
Humitat 89%
Pressió 1016 hPa
Visibilitat: 6000 m
Cel ennuvolat a una alçada de 600 ft
tempesta

METAR: FKYS 200000Z 26003KT 220V300 6000 TS BKN006 23/21 Q1016 NOSIG

Hora: 01:50 (00:50 UTC)

Pronòstic

L'informe es va fer fa 1 hora i 50 minuts, a les 23:00 UTC
Pronòstic vàlid del 20 a les 00 UTC al 20 a les 24 UTC
Vent 4 kt del Oest
Visibilitat: 4000 m
Cel ennuvolat a una alçada de 600 ft
calitja
Temporalment
l' 20 a les 04 UTC al 20 a les 08 UTC
Visibilitat: 2000 m
boirina
Evolucionant progressivament
l' 20 a les 08 UTC al 20 a les 10 UTC
Cel ennuvolat a una alçada de 1600 ft

TAF: FKYS 192300Z 2000/2024 26004KT 4000 HZ BKN006 TEMPO 2004/2008 2000 BR BECMG 2008/2010 BKN016

Observacions i pronòstics meteorològics de més de 4000 aeroports (METAR i TAF).

Les estacions disponibles són els punts grocs i vermells al mapa.

Posi el ratolí al punt desitjat per veure el nom de l'estació.

Feu clic per veure les observacions i els pronòstics meteorològics.

Per canviar el mapa: feu clic els botons verds amb una creu de color negre per apropar; al botó verd amb un guió per allunyar la imatge; o en les fletxes verdes per a mapes adjacents.


METAR-TAF: